sensor_id;sensor_type;location;lat;lon;timestamp;temperature;humidity
11925;DHT22;6022;48.768;18.608;2023-06-26T00:01:49;17.50;99.90
11925;DHT22;6022;48.768;18.608;2023-06-26T00:04:17;17.50;99.90
11925;DHT22;6022;48.768;18.608;2023-06-26T00:06:46;17.30;99.90
11925;DHT22;6022;48.768;18.608;2023-06-26T00:09:14;17.40;99.90
11925;DHT22;6022;48.768;18.608;2023-06-26T00:11:46;17.40;99.90
11925;DHT22;6022;48.768;18.608;2023-06-26T00:14:18;17.60;99.90
11925;DHT22;6022;48.768;18.608;2023-06-26T00:16:50;17.60;99.90
11925;DHT22;6022;48.768;18.608;2023-06-26T00:19:21;17.70;99.90
11925;DHT22;6022;48.768;18.608;2023-06-26T00:21:50;17.90;99.90
11925;DHT22;6022;48.768;18.608;2023-06-26T00:24:26;17.50;99.90
11925;DHT22;6022;48.768;18.608;2023-06-26T00:26:56;17.50;99.90
11925;DHT22;6022;48.768;18.608;2023-06-26T00:29:27;17.50;99.90
11925;DHT22;6022;48.768;18.608;2023-06-26T00:31:54;17.60;99.90
11925;DHT22;6022;48.768;18.608;2023-06-26T00:34:27;17.30;99.90
11925;DHT22;6022;48.768;18.608;2023-06-26T00:37:02;17.10;99.90
11925;DHT22;6022;48.768;18.608;2023-06-26T00:39:33;16.90;99.90
11925;DHT22;6022;48.768;18.608;2023-06-26T00:42:05;16.90;99.90
11925;DHT22;6022;48.768;18.608;2023-06-26T00:44:35;17.00;99.90
11925;DHT22;6022;48.768;18.608;2023-06-26T00:47:05;17.00;99.90
11925;DHT22;6022;48.768;18.608;2023-06-26T00:49:34;16.70;99.90
11925;DHT22;6022;48.768;18.608;2023-06-26T00:52:02;16.60;99.90
11925;DHT22;6022;48.768;18.608;2023-06-26T00:54:35;16.80;99.90
11925;DHT22;6022;48.768;18.608;2023-06-26T00:57:05;16.50;99.90
11925;DHT22;6022;48.768;18.608;2023-06-26T00:59:34;16.80;99.90
11925;DHT22;6022;48.768;18.608;2023-06-26T01:02:05;16.40;99.90
11925;DHT22;6022;48.768;18.608;2023-06-26T01:04:37;16.70;99.90
11925;DHT22;6022;48.768;18.608;2023-06-26T01:07:08;16.70;99.90
11925;DHT22;6022;48.768;18.608;2023-06-26T01:09:39;16.70;99.90
11925;DHT22;6022;48.768;18.608;2023-06-26T01:12:11;16.60;99.90
11925;DHT22;6022;48.768;18.608;2023-06-26T01:14:41;16.60;99.90
11925;DHT22;6022;48.768;18.608;2023-06-26T01:17:10;16.60;99.90
11925;DHT22;6022;48.768;18.608;2023-06-26T01:19:45;16.70;99.90
11925;DHT22;6022;48.768;18.608;2023-06-26T01:25:11;16.50;99.90
11925;DHT22;6022;48.768;18.608;2023-06-26T01:27:40;16.80;99.90
11925;DHT22;6022;48.768;18.608;2023-06-26T01:30:12;16.50;99.90
11925;DHT22;6022;48.768;18.608;2023-06-26T01:32:44;16.70;99.90
11925;DHT22;6022;48.768;18.608;2023-06-26T01:35:16;16.80;99.90
11925;DHT22;6022;48.768;18.608;2023-06-26T01:38:18;16.30;99.90
11925;DHT22;6022;48.768;18.608;2023-06-26T01:40:53;16.40;99.90
11925;DHT22;6022;48.768;18.608;2023-06-26T01:43:55;16.40;99.90
11925;DHT22;6022;48.768;18.608;2023-06-26T01:46:43;16.20;99.90
11925;DHT22;6022;48.768;18.608;2023-06-26T01:49:35;16.30;99.90
11925;DHT22;6022;48.768;18.608;2023-06-26T01:52:36;16.40;99.90
11925;DHT22;6022;48.768;18.608;2023-06-26T01:55:24;16.30;99.90
11925;DHT22;6022;48.768;18.608;2023-06-26T01:57:56;16.10;99.90
11925;DHT22;6022;48.768;18.608;2023-06-26T02:00:28;16.10;99.90
11925;DHT22;6022;48.768;18.608;2023-06-26T02:02:58;16.30;99.90
11925;DHT22;6022;48.768;18.608;2023-06-26T02:05:26;16.20;99.90
11925;DHT22;6022;48.768;18.608;2023-06-26T02:07:56;16.30;99.90
11925;DHT22;6022;48.768;18.608;2023-06-26T02:10:24;16.50;99.90
11925;DHT22;6022;48.768;18.608;2023-06-26T02:12:51;16.40;99.90
11925;DHT22;6022;48.768;18.608;2023-06-26T02:15:19;16.50;99.90
11925;DHT22;6022;48.768;18.608;2023-06-26T02:17:48;16.00;99.90
11925;DHT22;6022;48.768;18.608;2023-06-26T02:20:16;16.20;99.90
11925;DHT22;6022;48.768;18.608;2023-06-26T02:22:44;16.30;99.90
11925;DHT22;6022;48.768;18.608;2023-06-26T02:25:12;15.90;99.90
11925;DHT22;6022;48.768;18.608;2023-06-26T02:27:44;16.10;99.90
11925;DHT22;6022;48.768;18.608;2023-06-26T02:30:11;15.60;99.90
11925;DHT22;6022;48.768;18.608;2023-06-26T02:32:41;15.80;99.90
11925;DHT22;6022;48.768;18.608;2023-06-26T02:35:09;16.00;99.90
11925;DHT22;6022;48.768;18.608;2023-06-26T02:37:44;16.10;99.90
11925;DHT22;6022;48.768;18.608;2023-06-26T02:40:17;15.80;99.90
11925;DHT22;6022;48.768;18.608;2023-06-26T02:42:49;15.90;99.90
11925;DHT22;6022;48.768;18.608;2023-06-26T02:45:16;15.90;99.90
11925;DHT22;6022;48.768;18.608;2023-06-26T02:47:44;15.60;99.90
11925;DHT22;6022;48.768;18.608;2023-06-26T02:50:17;15.90;99.90
11925;DHT22;6022;48.768;18.608;2023-06-26T02:52:52;16.00;99.90
11925;DHT22;6022;48.768;18.608;2023-06-26T02:55:22;16.10;99.90
11925;DHT22;6022;48.768;18.608;2023-06-26T02:57:54;15.80;99.90
11925;DHT22;6022;48.768;18.608;2023-06-26T03:00:25;16.00;99.90
11925;DHT22;6022;48.768;18.608;2023-06-26T03:02:55;15.80;99.90
11925;DHT22;6022;48.768;18.608;2023-06-26T03:05:25;15.90;99.90
11925;DHT22;6022;48.768;18.608;2023-06-26T03:07:55;16.10;99.90
11925;DHT22;6022;48.768;18.608;2023-06-26T03:10:22;15.80;99.90
11925;DHT22;6022;48.768;18.608;2023-06-26T03:12:50;16.00;99.90
11925;DHT22;6022;48.768;18.608;2023-06-26T03:15:20;15.60;99.90
11925;DHT22;6022;48.768;18.608;2023-06-26T03:17:47;15.40;99.90
11925;DHT22;6022;48.768;18.608;2023-06-26T03:20:15;15.60;99.90
11925;DHT22;6022;48.768;18.608;2023-06-26T03:22:45;15.50;99.90
11925;DHT22;6022;48.768;18.608;2023-06-26T03:25:12;15.60;99.90
11925;DHT22;6022;48.768;18.608;2023-06-26T03:27:45;15.50;99.90
11925;DHT22;6022;48.768;18.608;2023-06-26T03:30:15;15.30;99.90
11925;DHT22;6022;48.768;18.608;2023-06-26T03:32:45;15.60;99.90
11925;DHT22;6022;48.768;18.608;2023-06-26T03:35:12;15.50;99.90
11925;DHT22;6022;48.768;18.608;2023-06-26T03:37:46;15.60;99.90
11925;DHT22;6022;48.768;18.608;2023-06-26T03:40:15;15.70;99.90
11925;DHT22;6022;48.768;18.608;2023-06-26T03:42:48;16.20;99.90
11925;DHT22;6022;48.768;18.608;2023-06-26T03:45:19;16.10;99.90
11925;DHT22;6022;48.768;18.608;2023-06-26T03:47:47;16.20;99.90
11925;DHT22;6022;48.768;18.608;2023-06-26T03:50:19;16.40;99.90
11925;DHT22;6022;48.768;18.608;2023-06-26T03:52:48;17.10;99.90
11925;DHT22;6022;48.768;18.608;2023-06-26T03:55:20;17.30;99.90
11925;DHT22;6022;48.768;18.608;2023-06-26T03:57:49;17.70;99.90
11925;DHT22;6022;48.768;18.608;2023-06-26T04:00:27;18.30;99.90
11925;DHT22;6022;48.768;18.608;2023-06-26T04:03:01;19.30;99.90
11925;DHT22;6022;48.768;18.608;2023-06-26T04:05:37;19.30;99.90
11925;DHT22;6022;48.768;18.608;2023-06-26T04:08:08;19.40;99.90
11925;DHT22;6022;48.768;18.608;2023-06-26T04:10:56;19.20;99.90
11925;DHT22;6022;48.768;18.608;2023-06-26T04:13:32;18.80;99.90
11925;DHT22;6022;48.768;18.608;2023-06-26T04:16:05;18.10;99.90
11925;DHT22;6022;48.768;18.608;2023-06-26T04:18:40;18.20;99.90
11925;DHT22;6022;48.768;18.608;2023-06-26T04:21:12;18.10;99.90
11925;DHT22;6022;48.768;18.608;2023-06-26T04:23:44;17.90;99.90
11925;DHT22;6022;48.768;18.608;2023-06-26T04:26:17;17.70;99.90
11925;DHT22;6022;48.768;18.608;2023-06-26T04:28:48;17.60;99.90
11925;DHT22;6022;48.768;18.608;2023-06-26T04:31:21;17.30;99.90
11925;DHT22;6022;48.768;18.608;2023-06-26T04:34:02;17.30;99.90
11925;DHT22;6022;48.768;18.608;2023-06-26T04:36:29;17.40;99.90
11925;DHT22;6022;48.768;18.608;2023-06-26T04:39:03;17.80;99.90
11925;DHT22;6022;48.768;18.608;2023-06-26T05:24:55;29.60;95.30
11925;DHT22;6022;48.768;18.608;2023-06-26T05:27:26;30.10;92.80
11925;DHT22;6022;48.768;18.608;2023-06-26T05:29:54;29.60;92.20
11925;DHT22;6022;48.768;18.608;2023-06-26T05:32:22;29.20;92.70
11925;DHT22;6022;48.768;18.608;2023-06-26T05:34:51;29.40;92.70
11925;DHT22;6022;48.768;18.608;2023-06-26T05:37:26;29.90;91.80
11925;DHT22;6022;48.768;18.608;2023-06-26T05:39:58;29.90;91.50
11925;DHT22;6022;48.768;18.608;2023-06-26T05:42:27;30.10;89.50
11925;DHT22;6022;48.768;18.608;2023-06-26T05:44:57;29.40;90.30
11925;DHT22;6022;48.768;18.608;2023-06-26T05:47:25;28.90;91.50
11925;DHT22;6022;48.768;18.608;2023-06-26T05:49:55;29.00;90.50
11925;DHT22;6022;48.768;18.608;2023-06-26T05:52:23;29.20;91.10
11925;DHT22;6022;48.768;18.608;2023-06-26T05:54:51;28.90;91.40
11925;DHT22;6022;48.768;18.608;2023-06-26T05:57:22;30.70;86.80
11925;DHT22;6022;48.768;18.608;2023-06-26T06:00:02;30.60;85.50
11925;DHT22;6022;48.768;18.608;2023-06-26T06:02:38;31.10;83.10
11925;DHT22;6022;48.768;18.608;2023-06-26T06:05:06;30.40;84.00
11925;DHT22;6022;48.768;18.608;2023-06-26T06:07:35;30.50;82.90
11925;DHT22;6022;48.768;18.608;2023-06-26T06:10:03;32.50;77.40
11925;DHT22;6022;48.768;18.608;2023-06-26T06:12:31;32.60;71.50
11925;DHT22;6022;48.768;18.608;2023-06-26T06:14:58;32.60;71.90
11925;DHT22;6022;48.768;18.608;2023-06-26T06:17:27;32.70;69.40
11925;DHT22;6022;48.768;18.608;2023-06-26T06:19:55;32.60;67.70
11925;DHT22;6022;48.768;18.608;2023-06-26T06:22:22;32.30;68.30
11925;DHT22;6022;48.768;18.608;2023-06-26T06:24:50;31.90;68.00
11925;DHT22;6022;48.768;18.608;2023-06-26T06:27:18;31.90;67.30
11925;DHT22;6022;48.768;18.608;2023-06-26T06:29:46;32.40;65.60
11925;DHT22;6022;48.768;18.608;2023-06-26T06:32:16;32.20;65.20
11925;DHT22;6022;48.768;18.608;2023-06-26T06:34:50;32.70;63.90
11925;DHT22;6022;48.768;18.608;2023-06-26T06:37:17;33.60;62.80
11925;DHT22;6022;48.768;18.608;2023-06-26T06:39:45;34.00;61.30
11925;DHT22;6022;48.768;18.608;2023-06-26T06:42:12;34.80;59.00
11925;DHT22;6022;48.768;18.608;2023-06-26T06:44:39;34.30;56.20
11925;DHT22;6022;48.768;18.608;2023-06-26T06:47:07;35.10;54.70
11925;DHT22;6022;48.768;18.608;2023-06-26T06:49:34;34.30;53.90
11925;DHT22;6022;48.768;18.608;2023-06-26T06:52:01;34.30;54.60
11925;DHT22;6022;48.768;18.608;2023-06-26T06:54:33;34.50;55.50
11925;DHT22;6022;48.768;18.608;2023-06-26T06:57:19;34.50;56.10
11925;DHT22;6022;48.768;18.608;2023-06-26T06:59:47;33.40;53.30
11925;DHT22;6022;48.768;18.608;2023-06-26T07:02:18;33.40;56.10
11925;DHT22;6022;48.768;18.608;2023-06-26T07:04:46;33.50;56.90
11925;DHT22;6022;48.768;18.608;2023-06-26T07:07:13;34.00;56.30
11925;DHT22;6022;48.768;18.608;2023-06-26T07:09:44;33.70;53.30
11925;DHT22;6022;48.768;18.608;2023-06-26T07:12:12;33.60;53.90
11925;DHT22;6022;48.768;18.608;2023-06-26T07:14:39;33.60;53.40
11925;DHT22;6022;48.768;18.608;2023-06-26T07:17:07;33.40;53.40
11925;DHT22;6022;48.768;18.608;2023-06-26T07:19:35;33.30;53.10
11925;DHT22;6022;48.768;18.608;2023-06-26T07:22:03;33.50;54.10
11925;DHT22;6022;48.768;18.608;2023-06-26T07:24:31;33.40;54.20
11925;DHT22;6022;48.768;18.608;2023-06-26T07:26:59;32.10;56.00
11925;DHT22;6022;48.768;18.608;2023-06-26T07:29:27;33.30;54.30
11925;DHT22;6022;48.768;18.608;2023-06-26T07:31:55;33.60;54.30
11925;DHT22;6022;48.768;18.608;2023-06-26T07:34:22;33.70;53.60
11925;DHT22;6022;48.768;18.608;2023-06-26T07:36:53;35.20;50.10
11925;DHT22;6022;48.768;18.608;2023-06-26T07:39:21;34.00;49.50
11925;DHT22;6022;48.768;18.608;2023-06-26T07:41:51;34.50;50.10
11925;DHT22;6022;48.768;18.608;2023-06-26T07:44:19;34.60;49.10
11925;DHT22;6022;48.768;18.608;2023-06-26T07:46:47;34.30;49.70
11925;DHT22;6022;48.768;18.608;2023-06-26T07:49:15;35.10;46.60
11925;DHT22;6022;48.768;18.608;2023-06-26T07:51:42;35.10;46.50
11925;DHT22;6022;48.768;18.608;2023-06-26T07:54:10;34.60;46.40
11925;DHT22;6022;48.768;18.608;2023-06-26T07:56:58;35.10;45.70
11925;DHT22;6022;48.768;18.608;2023-06-26T07:59:30;34.70;43.30
11925;DHT22;6022;48.768;18.608;2023-06-26T08:01:59;33.70;45.00
11925;DHT22;6022;48.768;18.608;2023-06-26T08:04:27;33.60;46.60
11925;DHT22;6022;48.768;18.608;2023-06-26T08:07:05;33.90;45.00
11925;DHT22;6022;48.768;18.608;2023-06-26T08:09:32;34.00;45.80
11925;DHT22;6022;48.768;18.608;2023-06-26T08:12:00;33.90;44.10
11925;DHT22;6022;48.768;18.608;2023-06-26T08:14:27;33.80;44.20
11925;DHT22;6022;48.768;18.608;2023-06-26T08:16:55;33.60;44.50
11925;DHT22;6022;48.768;18.608;2023-06-26T08:19:22;33.50;43.70
11925;DHT22;6022;48.768;18.608;2023-06-26T08:21:49;33.70;44.60
11925;DHT22;6022;48.768;18.608;2023-06-26T08:24:16;33.30;46.70
11925;DHT22;6022;48.768;18.608;2023-06-26T08:26:46;33.70;44.30
11925;DHT22;6022;48.768;18.608;2023-06-26T08:29:16;33.80;45.30
11925;DHT22;6022;48.768;18.608;2023-06-26T08:31:43;34.30;43.60
11925;DHT22;6022;48.768;18.608;2023-06-26T08:34:11;34.30;42.30
11925;DHT22;6022;48.768;18.608;2023-06-26T08:36:42;34.00;42.30
11925;DHT22;6022;48.768;18.608;2023-06-26T08:39:19;34.20;42.10
11925;DHT22;6022;48.768;18.608;2023-06-26T08:41:54;34.80;41.50
11925;DHT22;6022;48.768;18.608;2023-06-26T08:44:24;34.50;42.00
11925;DHT22;6022;48.768;18.608;2023-06-26T08:46:52;34.30;41.50
11925;DHT22;6022;48.768;18.608;2023-06-26T08:49:37;33.90;43.00
11925;DHT22;6022;48.768;18.608;2023-06-26T08:54:58;33.80;41.10
11925;DHT22;6022;48.768;18.608;2023-06-26T08:57:28;36.20;41.50
11925;DHT22;6022;48.768;18.608;2023-06-26T09:00:05;35.10;41.00
11925;DHT22;6022;48.768;18.608;2023-06-26T09:02:36;35.20;41.40
11925;DHT22;6022;48.768;18.608;2023-06-26T09:05:07;35.60;40.00
11925;DHT22;6022;48.768;18.608;2023-06-26T09:07:37;34.60;41.60
11925;DHT22;6022;48.768;18.608;2023-06-26T09:10:09;34.00;40.10
11925;DHT22;6022;48.768;18.608;2023-06-26T09:12:37;33.20;41.50
11925;DHT22;6022;48.768;18.608;2023-06-26T09:15:08;33.30;43.10
11925;DHT22;6022;48.768;18.608;2023-06-26T09:22:47;31.90;48.30
11925;DHT22;6022;48.768;18.608;2023-06-26T09:36:35;31.10;50.40
11925;DHT22;6022;48.768;18.608;2023-06-26T09:39:18;32.30;51.50
11925;DHT22;6022;48.768;18.608;2023-06-26T09:41:59;32.20;46.80
11925;DHT22;6022;48.768;18.608;2023-06-26T09:44:59;32.40;47.10
11925;DHT22;6022;48.768;18.608;2023-06-26T09:48:00;32.30;47.20
11925;DHT22;6022;48.768;18.608;2023-06-26T09:50:30;34.10;46.80
11925;DHT22;6022;48.768;18.608;2023-06-26T09:53:11;34.60;46.80
11925;DHT22;6022;48.768;18.608;2023-06-26T09:55:45;34.30;44.90
11925;DHT22;6022;48.768;18.608;2023-06-26T09:58:16;33.80;45.10
11925;DHT22;6022;48.768;18.608;2023-06-26T10:00:45;34.00;44.70
11925;DHT22;6022;48.768;18.608;2023-06-26T10:03:19;34.80;45.30
11925;DHT22;6022;48.768;18.608;2023-06-26T10:05:52;35.20;45.70
11925;DHT22;6022;48.768;18.608;2023-06-26T10:08:21;35.40;45.90
11925;DHT22;6022;48.768;18.608;2023-06-26T10:10:49;35.40;44.00
11925;DHT22;6022;48.768;18.608;2023-06-26T10:13:31;35.50;43.70
11925;DHT22;6022;48.768;18.608;2023-06-26T10:16:01;34.80;43.90
11925;DHT22;6022;48.768;18.608;2023-06-26T10:18:32;34.40;43.20
11925;DHT22;6022;48.768;18.608;2023-06-26T10:21:03;34.00;41.70
11925;DHT22;6022;48.768;18.608;2023-06-26T10:23:52;32.90;40.40
11925;DHT22;6022;48.768;18.608;2023-06-26T10:26:27;32.10;42.90
11925;DHT22;6022;48.768;18.608;2023-06-26T10:28:59;31.50;42.90
11925;DHT22;6022;48.768;18.608;2023-06-26T10:31:31;32.00;45.60
11925;DHT22;6022;48.768;18.608;2023-06-26T10:34:00;32.60;42.70
11925;DHT22;6022;48.768;18.608;2023-06-26T10:36:31;32.50;45.20
11925;DHT22;6022;48.768;18.608;2023-06-26T10:39:04;32.60;44.20
11925;DHT22;6022;48.768;18.608;2023-06-26T10:41:39;32.50;45.60
11925;DHT22;6022;48.768;18.608;2023-06-26T10:44:42;33.80;44.00
11925;DHT22;6022;48.768;18.608;2023-06-26T10:47:28;34.00;42.30
11925;DHT22;6022;48.768;18.608;2023-06-26T10:50:23;33.30;43.20
11925;DHT22;6022;48.768;18.608;2023-06-26T10:53:24;31.90;44.20
11925;DHT22;6022;48.768;18.608;2023-06-26T10:55:59;30.90;44.50
11925;DHT22;6022;48.768;18.608;2023-06-26T11:01:14;30.50;47.50
11925;DHT22;6022;48.768;18.608;2023-06-26T11:04:04;31.00;50.80
11925;DHT22;6022;48.768;18.608;2023-06-26T11:06:48;31.70;44.50
11925;DHT22;6022;48.768;18.608;2023-06-26T11:10:00;32.00;45.80
11925;DHT22;6022;48.768;18.608;2023-06-26T11:12:40;32.20;45.70
11925;DHT22;6022;48.768;18.608;2023-06-26T11:15:17;32.70;46.60
11925;DHT22;6022;48.768;18.608;2023-06-26T11:17:46;32.80;47.10
11925;DHT22;6022;48.768;18.608;2023-06-26T11:20:15;32.20;44.10
11925;DHT22;6022;48.768;18.608;2023-06-26T11:22:44;31.90;44.10
11925;DHT22;6022;48.768;18.608;2023-06-26T11:25:11;32.50;44.40
11925;DHT22;6022;48.768;18.608;2023-06-26T11:27:45;32.30;44.90
11925;DHT22;6022;48.768;18.608;2023-06-26T11:30:23;32.70;43.70
11925;DHT22;6022;48.768;18.608;2023-06-26T11:33:05;32.90;43.20
11925;DHT22;6022;48.768;18.608;2023-06-26T11:35:34;33.40;44.60
11925;DHT22;6022;48.768;18.608;2023-06-26T11:38:04;33.30;45.20
11925;DHT22;6022;48.768;18.608;2023-06-26T11:40:36;33.20;43.10
11925;DHT22;6022;48.768;18.608;2023-06-26T11:43:04;33.00;44.50
11925;DHT22;6022;48.768;18.608;2023-06-26T11:45:32;31.90;43.00
11925;DHT22;6022;48.768;18.608;2023-06-26T11:48:00;31.40;44.30
11925;DHT22;6022;48.768;18.608;2023-06-26T11:50:29;30.80;44.80
11925;DHT22;6022;48.768;18.608;2023-06-26T11:52:59;30.80;45.00
11925;DHT22;6022;48.768;18.608;2023-06-26T11:55:41;31.10;44.90
11925;DHT22;6022;48.768;18.608;2023-06-26T11:58:09;31.40;43.80
11925;DHT22;6022;48.768;18.608;2023-06-26T12:00:41;31.60;42.30
11925;DHT22;6022;48.768;18.608;2023-06-26T12:03:10;31.70;42.50
11925;DHT22;6022;48.768;18.608;2023-06-26T12:05:40;31.90;41.80
11925;DHT22;6022;48.768;18.608;2023-06-26T12:08:07;31.90;44.50
11925;DHT22;6022;48.768;18.608;2023-06-26T12:10:35;32.40;43.50
11925;DHT22;6022;48.768;18.608;2023-06-26T12:13:03;32.00;44.30
11925;DHT22;6022;48.768;18.608;2023-06-26T12:15:30;32.10;41.40
11925;DHT22;6022;48.768;18.608;2023-06-26T12:17:58;32.40;41.20
11925;DHT22;6022;48.768;18.608;2023-06-26T12:20:28;31.80;40.40
11925;DHT22;6022;48.768;18.608;2023-06-26T12:22:59;31.80;41.60
11925;DHT22;6022;48.768;18.608;2023-06-26T12:25:26;31.90;42.60
11925;DHT22;6022;48.768;18.608;2023-06-26T12:27:53;32.30;42.60
11925;DHT22;6022;48.768;18.608;2023-06-26T12:30:21;32.10;42.10
11925;DHT22;6022;48.768;18.608;2023-06-26T12:32:48;32.10;43.70
11925;DHT22;6022;48.768;18.608;2023-06-26T12:35:16;32.10;45.20
11925;DHT22;6022;48.768;18.608;2023-06-26T12:37:43;31.50;44.90
11925;DHT22;6022;48.768;18.608;2023-06-26T12:40:17;31.90;45.00
11925;DHT22;6022;48.768;18.608;2023-06-26T12:42:51;31.80;46.00
11925;DHT22;6022;48.768;18.608;2023-06-26T12:45:19;31.70;44.20
11925;DHT22;6022;48.768;18.608;2023-06-26T12:47:50;31.00;43.30
11925;DHT22;6022;48.768;18.608;2023-06-26T12:50:17;30.90;43.30
11925;DHT22;6022;48.768;18.608;2023-06-26T12:52:44;30.40;45.00
11925;DHT22;6022;48.768;18.608;2023-06-26T12:55:11;30.50;45.30
11925;DHT22;6022;48.768;18.608;2023-06-26T12:57:39;31.00;47.30
11925;DHT22;6022;48.768;18.608;2023-06-26T13:00:06;31.20;47.20
11925;DHT22;6022;48.768;18.608;2023-06-26T13:02:36;31.90;46.90
11925;DHT22;6022;48.768;18.608;2023-06-26T13:05:04;31.60;43.90
11925;DHT22;6022;48.768;18.608;2023-06-26T13:07:31;31.80;46.40
11925;DHT22;6022;48.768;18.608;2023-06-26T13:09:59;31.90;43.90
11925;DHT22;6022;48.768;18.608;2023-06-26T13:12:26;31.70;44.20
11925;DHT22;6022;48.768;18.608;2023-06-26T13:14:53;31.60;44.90
11925;DHT22;6022;48.768;18.608;2023-06-26T13:17:21;31.60;44.90
11925;DHT22;6022;48.768;18.608;2023-06-26T13:19:48;31.50;44.20
11925;DHT22;6022;48.768;18.608;2023-06-26T13:22:16;31.40;42.60
11925;DHT22;6022;48.768;18.608;2023-06-26T13:24:43;31.40;45.10
11925;DHT22;6022;48.768;18.608;2023-06-26T13:27:13;31.40;45.40
11925;DHT22;6022;48.768;18.608;2023-06-26T13:29:40;31.30;46.00
11925;DHT22;6022;48.768;18.608;2023-06-26T13:32:08;30.80;44.50
11925;DHT22;6022;48.768;18.608;2023-06-26T13:34:35;30.80;45.30
11925;DHT22;6022;48.768;18.608;2023-06-26T13:37:05;31.10;47.30
11925;DHT22;6022;48.768;18.608;2023-06-26T13:39:33;31.10;46.20
11925;DHT22;6022;48.768;18.608;2023-06-26T13:42:02;31.00;46.70
11925;DHT22;6022;48.768;18.608;2023-06-26T13:44:30;30.60;45.50
11925;DHT22;6022;48.768;18.608;2023-06-26T13:47:12;30.60;47.50
11925;DHT22;6022;48.768;18.608;2023-06-26T13:49:41;30.70;48.10
11925;DHT22;6022;48.768;18.608;2023-06-26T13:52:08;30.90;48.70
11925;DHT22;6022;48.768;18.608;2023-06-26T13:54:36;30.40;46.30
11925;DHT22;6022;48.768;18.608;2023-06-26T13:57:08;30.60;47.10
11925;DHT22;6022;48.768;18.608;2023-06-26T13:59:39;30.60;47.50
11925;DHT22;6022;48.768;18.608;2023-06-26T14:02:09;29.90;45.50
11925;DHT22;6022;48.768;18.608;2023-06-26T14:04:40;29.80;46.70
11925;DHT22;6022;48.768;18.608;2023-06-26T14:07:09;29.80;47.10
11925;DHT22;6022;48.768;18.608;2023-06-26T14:09:39;29.90;47.60
11925;DHT22;6022;48.768;18.608;2023-06-26T14:12:07;30.00;46.90
11925;DHT22;6022;48.768;18.608;2023-06-26T14:14:37;29.90;47.20
11925;DHT22;6022;48.768;18.608;2023-06-26T14:17:06;29.90;47.60
11925;DHT22;6022;48.768;18.608;2023-06-26T14:19:40;29.90;48.30
11925;DHT22;6022;48.768;18.608;2023-06-26T14:22:07;29.60;47.60
11925;DHT22;6022;48.768;18.608;2023-06-26T14:24:35;29.70;48.40
11925;DHT22;6022;48.768;18.608;2023-06-26T14:27:04;29.70;49.30
11925;DHT22;6022;48.768;18.608;2023-06-26T14:29:31;29.70;51.60
11925;DHT22;6022;48.768;18.608;2023-06-26T14:31:58;29.70;51.10
11925;DHT22;6022;48.768;18.608;2023-06-26T14:34:27;29.40;50.00
11925;DHT22;6022;48.768;18.608;2023-06-26T14:37:00;29.30;48.60
11925;DHT22;6022;48.768;18.608;2023-06-26T14:39:27;29.40;49.40
11925;DHT22;6022;48.768;18.608;2023-06-26T14:41:55;29.40;49.20
11925;DHT22;6022;48.768;18.608;2023-06-26T14:44:22;29.20;47.90
11925;DHT22;6022;48.768;18.608;2023-06-26T14:46:53;29.10;47.10
11925;DHT22;6022;48.768;18.608;2023-06-26T14:49:20;29.40;48.70
11925;DHT22;6022;48.768;18.608;2023-06-26T14:51:48;29.10;47.80
11925;DHT22;6022;48.768;18.608;2023-06-26T14:54:23;29.00;47.80
11925;DHT22;6022;48.768;18.608;2023-06-26T14:56:51;29.00;48.60
11925;DHT22;6022;48.768;18.608;2023-06-26T14:59:20;28.90;48.80
11925;DHT22;6022;48.768;18.608;2023-06-26T15:01:51;28.80;46.90
11925;DHT22;6022;48.768;18.608;2023-06-26T15:04:18;28.80;48.30
11925;DHT22;6022;48.768;18.608;2023-06-26T15:07:03;29.00;48.50
11925;DHT22;6022;48.768;18.608;2023-06-26T15:09:34;28.60;47.50
11925;DHT22;6022;48.768;18.608;2023-06-26T15:12:07;28.60;47.70
11925;DHT22;6022;48.768;18.608;2023-06-26T15:14:50;28.80;48.40
11925;DHT22;6022;48.768;18.608;2023-06-26T15:17:18;28.60;48.40
11925;DHT22;6022;48.768;18.608;2023-06-26T15:19:48;28.60;49.00
11925;DHT22;6022;48.768;18.608;2023-06-26T15:22:17;28.70;48.50
11925;DHT22;6022;48.768;18.608;2023-06-26T15:24:51;28.50;48.70
11925;DHT22;6022;48.768;18.608;2023-06-26T15:27:18;28.30;47.40
11925;DHT22;6022;48.768;18.608;2023-06-26T15:29:50;28.70;48.40
11925;DHT22;6022;48.768;18.608;2023-06-26T15:32:18;28.60;48.80
11925;DHT22;6022;48.768;18.608;2023-06-26T15:34:47;28.70;48.60
11925;DHT22;6022;48.768;18.608;2023-06-26T15:37:15;28.70;50.00
11925;DHT22;6022;48.768;18.608;2023-06-26T15:39:43;28.70;50.30
11925;DHT22;6022;48.768;18.608;2023-06-26T15:45:02;28.40;48.80
11925;DHT22;6022;48.768;18.608;2023-06-26T15:47:42;28.60;49.60
11925;DHT22;6022;48.768;18.608;2023-06-26T15:50:10;28.60;50.50
11925;DHT22;6022;48.768;18.608;2023-06-26T15:52:38;28.50;50.90
11925;DHT22;6022;48.768;18.608;2023-06-26T15:55:06;28.50;52.10
11925;DHT22;6022;48.768;18.608;2023-06-26T15:57:36;28.50;54.40
11925;DHT22;6022;48.768;18.608;2023-06-26T16:00:09;28.70;54.60
11925;DHT22;6022;48.768;18.608;2023-06-26T16:02:39;28.40;53.90
11925;DHT22;6022;48.768;18.608;2023-06-26T16:05:07;28.40;55.20
11925;DHT22;6022;48.768;18.608;2023-06-26T16:07:35;28.10;53.30
11925;DHT22;6022;48.768;18.608;2023-06-26T16:10:21;28.30;54.70
11925;DHT22;6022;48.768;18.608;2023-06-26T16:12:56;28.40;54.90
11925;DHT22;6022;48.768;18.608;2023-06-26T16:15:33;28.20;56.50
11925;DHT22;6022;48.768;18.608;2023-06-26T16:18:03;28.20;56.40
11925;DHT22;6022;48.768;18.608;2023-06-26T16:20:33;28.00;53.00
11925;DHT22;6022;48.768;18.608;2023-06-26T16:23:00;28.30;54.40
11925;DHT22;6022;48.768;18.608;2023-06-26T16:25:28;28.30;55.60
11925;DHT22;6022;48.768;18.608;2023-06-26T16:27:56;28.00;56.00
11925;DHT22;6022;48.768;18.608;2023-06-26T16:30:24;28.10;56.40
11925;DHT22;6022;48.768;18.608;2023-06-26T16:32:55;28.00;56.50
11925;DHT22;6022;48.768;18.608;2023-06-26T16:35:31;27.80;57.40
11925;DHT22;6022;48.768;18.608;2023-06-26T16:38:02;27.60;58.40
11925;DHT22;6022;48.768;18.608;2023-06-26T16:40:36;27.70;57.70
11925;DHT22;6022;48.768;18.608;2023-06-26T16:43:05;27.60;59.00
11925;DHT22;6022;48.768;18.608;2023-06-26T16:45:37;27.50;59.60
11925;DHT22;6022;48.768;18.608;2023-06-26T16:48:05;27.80;61.10
11925;DHT22;6022;48.768;18.608;2023-06-26T16:50:35;27.70;60.10
11925;DHT22;6022;48.768;18.608;2023-06-26T16:53:03;27.30;60.20
11925;DHT22;6022;48.768;18.608;2023-06-26T16:55:32;27.30;61.00
11925;DHT22;6022;48.768;18.608;2023-06-26T16:58:02;27.30;59.80
11925;DHT22;6022;48.768;18.608;2023-06-26T17:00:33;27.20;60.80
11925;DHT22;6022;48.768;18.608;2023-06-26T17:03:07;27.30;60.90
11925;DHT22;6022;48.768;18.608;2023-06-26T17:05:35;27.20;61.00
11925;DHT22;6022;48.768;18.608;2023-06-26T17:08:09;27.40;62.00